Time;durP1;ratioP1;P1;durP2;ratioP2;P2;SDS_P1;SDS_P2;PMS_P1;PMS_P2;Temp;Humidity;BMP_temperature;BMP_pressure;BME280_temperature;BME280_humidity;BME280_pressure;Samples;Min_cycle;Max_cycle;Signal;HPM_P1;HPM_P2
2021/05/25 00:01:26;;;;;;;11.50;4.37;;;;;;;12.93;65.18;101363.76;126265;1099;104316;-80
2021/05/25 00:03:55;;;;;;;10.40;4.03;;;;;;;12.88;65.17;101357.42;126360;1099;104194;-79
2021/05/25 00:06:24;;;;;;;10.87;3.97;;;;;;;12.88;65.14;101360.94;126273;1097;104142;-78
2021/05/25 00:08:53;;;;;;;8.00;4.00;;;;;;;12.89;65.58;101354.84;126330;1099;104238;-79
2021/05/25 00:11:22;;;;;;;11.33;4.20;;;;;;;12.94;65.69;101350.65;126254;1099;104126;-79
2021/05/25 00:13:53;;;;;;;11.40;4.27;;;;;;;13.01;65.86;101349.17;126276;1098;104307;-79
2021/05/25 00:16:22;;;;;;;9.83;4.23;;;;;;;13.08;65.68;101345.03;126196;1099;104236;-79
2021/05/25 00:18:52;;;;;;;8.67;3.93;;;;;;;13.07;65.46;101336.24;126284;1099;104257;-79
2021/05/25 00:21:21;;;;;;;10.37;4.93;;;;;;;13.02;65.67;101339.53;126332;1099;104232;-79
2021/05/25 00:23:51;;;;;;;10.17;4.23;;;;;;;12.93;65.83;101332.14;126311;1099;102169;-78
2021/05/25 00:26:20;;;;;;;9.63;4.20;;;;;;;12.91;65.72;101342.63;126190;1099;104306;-79
2021/05/25 00:28:49;;;;;;;12.47;4.40;;;;;;;12.94;65.87;101333.95;126321;1098;103963;-80
2021/05/25 00:31:18;;;;;;;8.53;4.13;;;;;;;13.02;66.06;101337.78;126312;1099;104139;-80
2021/05/25 00:33:47;;;;;;;8.27;4.23;;;;;;;13.06;65.67;101336.19;126231;1099;104169;-78
2021/05/25 00:36:16;;;;;;;12.87;4.73;;;;;;;13.09;66.09;101341.58;126239;1099;102385;-79
2021/05/25 00:38:45;;;;;;;12.97;4.40;;;;;;;13.12;65.85;101336.42;126169;1099;104229;-79
2021/05/25 00:41:15;;;;;;;11.53;4.40;;;;;;;13.17;66.23;101337.48;126292;1098;105223;-79
2021/05/25 00:43:44;;;;;;;13.03;4.77;;;;;;;13.20;66.35;101329.70;126194;1099;104309;-78
2021/05/25 00:46:14;;;;;;;9.17;4.50;;;;;;;13.20;66.25;101337.61;126228;1099;104162;-79
2021/05/25 00:48:43;;;;;;;8.77;3.93;;;;;;;13.16;65.68;101334.80;126227;1099;119217;-79
2021/05/25 00:51:12;;;;;;;8.40;4.30;;;;;;;13.12;66.04;101326.77;126212;1099;104316;-79
2021/05/25 00:53:41;;;;;;;10.50;4.40;;;;;;;13.12;66.50;101326.77;126310;1099;104137;-79
2021/05/25 00:56:12;;;;;;;7.57;4.20;;;;;;;13.11;66.44;101324.96;126294;1099;103594;-79
2021/05/25 00:58:42;;;;;;;10.83;4.10;;;;;;;13.09;66.42;101331.03;126263;1099;104631;-79
2021/05/25 01:01:11;;;;;;;7.77;3.97;;;;;;;13.08;66.41;101321.32;126280;1099;104615;-78
2021/05/25 01:03:40;;;;;;;10.10;4.27;;;;;;;13.05;66.41;101308.92;126261;1099;104175;-79
2021/05/25 01:06:09;;;;;;;10.90;4.10;;;;;;;13.05;66.31;101310.66;126270;1099;104204;-79
2021/05/25 01:08:39;;;;;;;9.47;3.90;;;;;;;13.07;66.27;101311.61;126236;1099;104261;-79
2021/05/25 01:11:10;;;;;;;16.83;4.70;;;;;;;13.13;66.50;101306.58;126250;1099;104217;-78
2021/05/25 01:13:44;;;;;;;15.17;4.00;;;;;;;13.13;66.47;101309.21;126308;1099;104237;-79
2021/05/25 01:16:14;;;;;;;13.10;4.55;;;;;;;13.10;66.22;101312.65;126282;1099;104171;-79
2021/05/25 01:18:44;;;;;;;11.30;4.50;;;;;;;13.08;66.34;101323.95;126267;1097;104176;-79
2021/05/25 01:21:15;;;;;;;8.47;4.30;;;;;;;13.12;66.56;101312.70;126311;1099;104152;-79
2021/05/25 01:23:44;;;;;;;9.87;4.30;;;;;;;13.17;67.07;101315.52;126314;1099;104146;-79
2021/05/25 01:26:15;;;;;;;10.43;4.43;;;;;;;13.21;66.65;101315.66;126318;1099;104273;-80
2021/05/25 01:28:46;;;;;;;10.20;4.80;;;;;;;13.27;66.95;101315.89;126187;1099;104142;-79
2021/05/25 01:31:16;;;;;;;9.90;4.60;;;;;;;13.33;66.77;101311.72;126299;1099;104726;-79
2021/05/25 01:33:46;;;;;;;9.37;3.83;;;;;;;13.36;66.78;101314.50;126319;1099;104337;-79
2021/05/25 01:36:16;;;;;;;8.80;4.43;;;;;;;13.37;66.98;101308.37;126338;1099;104274;-80
2021/05/25 01:38:46;;;;;;;7.83;4.00;;;;;;;13.40;66.84;101311.12;126239;1099;104268;-79
2021/05/25 01:41:15;;;;;;;9.07;4.03;;;;;;;13.42;66.91;101305.08;126251;1099;104144;-79
2021/05/25 01:43:45;;;;;;;10.90;4.80;;;;;;;13.45;66.78;101304.30;126228;1099;104338;-80
2021/05/25 01:46:14;;;;;;;11.67;4.70;;;;;;;13.44;66.87;101300.74;126320;1099;104168;-80
2021/05/25 01:48:43;;;;;;;10.13;4.43;;;;;;;13.44;67.14;101299.86;126249;1099;104134;-79
2021/05/25 01:51:12;;;;;;;7.47;4.20;;;;;;;13.42;67.27;101289.25;126269;1099;104136;-79
2021/05/25 01:53:41;;;;;;;13.53;4.60;;;;;;;13.43;66.99;101285.79;126287;1099;104625;-79
2021/05/25 01:56:11;;;;;;;9.67;4.30;;;;;;;13.42;66.96;101296.28;126229;1099;104262;-79
2021/05/25 01:58:40;;;;;;;11.40;4.70;;;;;;;13.43;66.87;101292.78;126246;1099;104146;-77
2021/05/25 02:01:11;;;;;;;8.63;4.37;;;;;;;13.42;66.44;101297.16;126312;1099;104162;-78
2021/05/25 02:03:41;;;;;;;9.23;4.27;;;;;;;13.40;66.82;101292.66;126289;1099;104467;-79
2021/05/25 02:06:11;;;;;;;12.03;4.70;;;;;;;13.35;66.62;101295.13;126263;1098;104395;-79
2021/05/25 02:08:41;;;;;;;10.65;4.70;;;;;;;13.37;67.20;101293.47;126211;1099;104197;-79
2021/05/25 02:11:10;;;;;;;14.33;4.70;;;;;;;13.36;67.37;101289.03;126317;1099;104188;-79
2021/05/25 02:13:40;;;;;;;8.23;4.77;;;;;;;13.35;67.48;101283.70;126306;1099;104159;-79
2021/05/25 02:16:13;;;;;;;10.33;4.60;;;;;;;13.34;67.07;101277.55;126279;1099;104143;-78
2021/05/25 02:18:45;;;;;;;9.93;4.40;;;;;;;13.33;67.21;101272.18;126188;1099;104262;-79
2021/05/25 02:21:17;;;;;;;12.67;4.70;;;;;;;13.32;67.25;101271.26;126256;1099;104293;-79
2021/05/25 02:23:48;;;;;;;10.83;4.40;;;;;;;13.29;67.26;101265.88;126308;1099;104134;-79
2021/05/25 02:26:18;;;;;;;9.87;4.00;;;;;;;13.25;67.24;101262.23;126300;1099;104145;-79
2021/05/25 02:28:47;;;;;;;13.53;5.00;;;;;;;13.26;67.19;101257.86;126219;1099;104335;-79
2021/05/25 02:31:17;;;;;;;10.03;4.27;;;;;;;13.27;67.21;101257.91;126267;1099;104365;-79
2021/05/25 02:33:46;;;;;;;10.20;4.55;;;;;;;13.31;67.43;101258.94;126261;1099;104159;-78
2021/05/25 02:36:15;;;;;;;8.87;4.53;;;;;;;13.37;67.59;101260.92;126274;1099;104149;-79
2021/05/25 02:38:44;;;;;;;11.33;5.07;;;;;;;13.39;67.12;101256.63;126269;1099;104172;-79
2021/05/25 02:41:13;;;;;;;10.05;5.00;;;;;;;13.39;67.68;101256.63;126338;1099;104156;-80
2021/05/25 02:43:42;;;;;;;9.33;4.33;;;;;;;13.40;67.42;101250.48;126291;1099;104258;-78
2021/05/25 02:46:11;;;;;;;9.07;4.30;;;;;;;13.38;67.84;101253.06;126287;1099;104137;-79
2021/05/25 02:48:40;;;;;;;14.47;4.70;;;;;;;13.35;67.65;101244.16;126282;1099;104264;-79
2021/05/25 02:51:09;;;;;;;14.03;5.23;;;;;;;13.30;67.85;101247.48;126299;1099;105764;-80
2021/05/25 02:53:38;;;;;;;16.37;4.90;;;;;;;13.29;67.63;101247.42;126250;1099;104417;-80
2021/05/25 02:56:08;;;;;;;12.23;4.87;;;;;;;13.27;67.63;101244.73;126289;1099;104309;-80
2021/05/25 02:58:37;;;;;;;14.25;5.10;;;;;;;13.26;67.41;101244.67;126306;1099;104137;-78
2021/05/25 03:01:06;;;;;;;14.63;5.40;;;;;;;13.21;67.31;101236.59;126186;1099;104178;-80
2021/05/25 03:03:35;;;;;;;13.23;4.83;;;;;;;13.19;67.47;101242.68;126277;1099;104185;-79
2021/05/25 03:06:04;;;;;;;15.30;5.50;;;;;;;13.19;67.98;101235.66;126305;1099;104172;-80
2021/05/25 03:08:33;;;;;;;11.90;5.37;;;;;;;13.21;67.70;101235.72;126274;1099;101824;-79
2021/05/25 03:11:03;;;;;;;19.47;5.03;;;;;;;13.23;67.62;101234.02;126182;1099;104185;-79
2021/05/25 03:13:32;;;;;;;19.37;5.33;;;;;;;13.22;67.98;101233.14;126275;1099;104262;-79
2021/05/25 03:16:01;;;;;;;17.70;4.70;;;;;;;13.22;67.79;101234.89;126246;1098;104144;-79
2021/05/25 03:18:30;;;;;;;15.30;5.00;;;;;;;13.23;67.88;101242.84;126275;1099;104134;-79
2021/05/25 03:20:59;;;;;;;14.70;4.50;;;;;;;13.25;67.83;101246.42;126194;1098;104192;-79
2021/05/25 03:23:28;;;;;;;10.83;5.27;;;;;;;13.28;68.03;101248.28;126285;1099;104136;-79
2021/05/25 03:26:11;;;;;;;16.10;5.50;;;;;;;13.30;68.25;101244.84;126292;1097;104166;-79
2021/05/25 03:28:41;;;;;;;15.05;5.40;;;;;;;13.33;68.38;101237.91;126340;1099;104238;-79
2021/05/25 03:31:10;;;;;;;19.00;5.50;;;;;;;13.34;68.21;101235.37;126146;1099;104229;-80
2021/05/25 03:33:39;;;;;;;14.00;4.73;;;;;;;13.34;67.82;101238.00;126257;1099;104265;-79
2021/05/25 03:36:09;;;;;;;13.43;5.17;;;;;;;13.33;68.35;101241.47;126229;1098;104246;-80
2021/05/25 03:38:38;;;;;;;17.77;4.57;;;;;;;13.37;67.90;101239.83;126313;1099;104166;-80
2021/05/25 03:41:07;;;;;;;15.63;4.73;;;;;;;13.41;67.94;101239.11;126242;1099;104136;-80
2021/05/25 03:43:37;;;;;;;10.93;4.77;;;;;;;13.46;67.79;101237.53;126261;1099;104152;-79
2021/05/25 03:46:08;;;;;;;10.43;4.57;;;;;;;13.51;67.70;101240.33;126156;1099;104197;-79
2021/05/25 03:48:37;;;;;;;14.93;5.07;;;;;;;13.56;67.67;101237.02;126205;1099;104145;-79
2021/05/25 03:51:06;;;;;;;22.70;5.43;;;;;;;13.65;68.12;101236.46;126105;1099;104238;-79
2021/05/25 03:53:36;;;;;;;13.37;4.80;;;;;;;13.77;68.05;101238.61;126072;1099;104220;-78
2021/05/25 03:56:17;;;;;;;13.80;5.03;;;;;;;13.88;68.22;101231.95;126158;1099;104141;-78
2021/05/25 03:58:49;;;;;;;12.83;4.97;;;;;;;13.94;67.71;101232.16;126132;1099;104216;-78
2021/05/25 04:01:21;;;;;;;16.83;5.27;;;;;;;13.96;68.08;101235.77;126141;1099;104142;-77
2021/05/25 04:03:54;;;;;;;12.30;4.65;;;;;;;13.99;67.95;101235.87;126140;1099;104341;-78
2021/05/25 04:06:24;;;;;;;12.47;4.93;;;;;;;14.03;68.19;101232.47;126043;1099;104142;-78
2021/05/25 04:08:53;;;;;;;16.00;5.20;;;;;;;14.09;68.06;101246.73;126054;1099;104335;-77
2021/05/25 04:11:25;;;;;;;13.10;5.50;;;;;;;14.16;67.58;101235.52;125982;1099;104287;-78
2021/05/25 04:13:55;;;;;;;15.67;5.27;;;;;;;14.21;68.09;101236.58;126120;1099;104137;-77
2021/05/25 04:16:26;;;;;;;15.93;5.20;;;;;;;14.28;68.62;101246.47;125903;1099;104134;-77
2021/05/25 04:18:57;;;;;;;16.53;5.37;;;;;;;14.34;68.06;101248.42;125977;1099;104165;-77
2021/05/25 04:21:26;;;;;;;12.43;5.60;;;;;;;14.35;68.03;101248.47;125997;1099;104168;-77
2021/05/25 04:23:55;;;;;;;15.35;5.20;;;;;;;14.35;68.44;101256.39;125885;1099;104158;-77
2021/05/25 04:26:27;;;;;;;12.77;5.87;;;;;;;14.36;67.84;101263.45;126069;1099;104149;-77
2021/05/25 04:28:56;;;;;;;14.73;5.53;;;;;;;14.36;67.65;101263.45;126051;1098;104300;-78
2021/05/25 04:31:27;;;;;;;16.87;5.40;;;;;;;14.39;67.73;101262.66;126048;1099;104242;-78
2021/05/25 04:33:56;;;;;;;15.10;5.60;;;;;;;14.45;68.30;101261.97;126232;1099;104617;-77
2021/05/25 04:36:25;;;;;;;23.03;6.60;;;;;;;14.55;68.12;101253.48;126258;1099;104239;-77
2021/05/25 04:38:55;;;;;;;16.10;5.90;;;;;;;14.68;68.17;101249.53;126211;1099;104242;-77
2021/05/25 04:41:24;;;;;;;24.03;7.13;;;;;;;14.79;67.93;101245.46;126062;1099;104248;-77
2021/05/25 04:43:53;;;;;;;18.83;6.67;;;;;;;14.84;67.68;101243.84;126131;1099;104168;-77
2021/05/25 04:46:22;;;;;;;20.87;6.70;;;;;;;14.87;67.60;101241.30;126017;1099;104395;-77
2021/05/25 04:48:51;;;;;;;14.77;6.00;;;;;;;14.93;67.71;101243.23;126083;1099;104730;-77
2021/05/25 04:51:20;;;;;;;15.50;6.07;;;;;;;14.98;67.68;101246.02;126158;1099;104191;-79
2021/05/25 04:53:49;;;;;;;14.83;5.57;;;;;;;15.05;67.62;101246.24;126078;1099;104226;-79
2021/05/25 04:56:20;;;;;;;17.90;5.63;;;;;;;15.12;67.92;101249.06;126163;1099;104174;-78
2021/05/25 04:58:49;;;;;;;14.47;5.23;;;;;;;15.17;67.19;101256.26;126063;1099;104146;-76
2021/05/25 05:01:18;;;;;;;11.93;5.40;;;;;;;15.25;68.22;101254.75;126057;1099;104155;-77
2021/05/25 05:03:51;;;;;;;14.67;5.93;;;;;;;15.30;67.94;101260.14;126104;1099;104192;-77
2021/05/25 05:06:23;;;;;;;14.40;6.10;;;;;;;15.38;68.09;101266.56;125896;1098;104267;-78
2021/05/25 05:08:54;;;;;;;18.50;6.23;;;;;;;15.44;67.83;101255.24;125752;1099;104072;-77
2021/05/25 05:11:25;;;;;;;17.27;6.50;;;;;;;15.50;67.80;101265.99;125909;1099;104309;-77
2021/05/25 05:14:00;;;;;;;13.57;6.03;;;;;;;15.57;68.05;101264.44;125946;1099;104150;-77
2021/05/25 05:16:30;;;;;;;19.47;5.63;;;;;;;15.65;67.36;101268.18;125973;1099;104149;-78
2021/05/25 05:19:03;;;;;;;17.25;5.55;;;;;;;15.71;67.19;101268.34;126029;1099;104213;-76
2021/05/25 05:21:35;;;;;;;17.27;5.97;;;;;;;15.81;67.59;101262.45;125952;1099;104172;-76
2021/05/25 05:24:06;;;;;;;18.80;7.57;;;;;;;15.89;66.81;101252.08;125771;1099;118760;-77
2021/05/25 05:26:36;;;;;;;21.83;6.90;;;;;;;15.93;66.82;101248.66;126020;1099;104142;-76
2021/05/25 05:29:05;;;;;;;21.20;7.73;;;;;;;15.98;67.12;101246.13;125834;1099;104143;-76
2021/05/25 05:31:35;;;;;;;15.67;8.00;;;;;;;16.04;66.73;101243.64;125878;1099;104261;-77
2021/05/25 05:34:05;;;;;;;19.33;7.47;;;;;;;16.10;66.73;101243.80;126079;1099;104258;-77
2021/05/25 05:36:35;;;;;;;18.33;7.63;;;;;;;16.17;67.15;101243.10;125958;1099;104245;-77
2021/05/25 05:39:06;;;;;;;15.27;5.90;;;;;;;16.23;66.65;101229.09;125885;1099;104210;-76
2021/05/25 05:41:36;;;;;;;9.07;4.70;;;;;;;16.29;67.22;101223.06;126110;1098;104143;-78
2021/05/25 05:44:06;;;;;;;11.73;5.63;;;;;;;16.37;66.33;101237.37;125786;1099;104163;-78
2021/05/25 05:46:36;;;;;;;11.33;5.37;;;;;;;16.44;67.13;101249.91;125796;1099;104274;-76
2021/05/25 05:49:06;;;;;;;14.70;5.13;;;;;;;16.52;66.38;101253.63;125761;1099;104354;-76
2021/05/25 05:51:39;;;;;;;10.63;5.53;;;;;;;16.60;67.01;101244.98;125745;1099;104242;-76
2021/05/25 05:54:14;;;;;;;13.00;5.43;;;;;;;16.69;66.35;101243.42;125786;1099;104184;-77
2021/05/25 05:56:48;;;;;;;14.17;4.87;;;;;;;16.76;66.16;101230.31;126213;1099;104200;-78
2021/05/25 05:59:28;;;;;;;12.37;4.90;;;;;;;16.85;66.00;101214.61;125781;1099;104255;-78
2021/05/25 06:02:05;;;;;;;10.17;4.50;;;;;;;16.89;65.77;101217.39;125794;1099;104328;-77
2021/05/25 06:04:37;;;;;;;9.00;4.30;;;;;;;16.92;65.60;101221.84;125722;1099;104213;-77
2021/05/25 06:07:10;;;;;;;9.08;3.90;;;;;;;16.91;65.47;101208.55;125737;1099;104246;-76
2021/05/25 06:09:43;;;;;;;8.13;3.67;;;;;;;17.01;65.37;101218.50;125810;1099;105184;-76
2021/05/25 06:12:14;;;;;;;12.70;3.60;;;;;;;17.07;65.40;101214.20;125854;1098;104203;-77
2021/05/25 06:14:47;;;;;;;8.23;3.97;;;;;;;17.12;64.66;101209.00;125743;1099;105265;-77
2021/05/25 06:17:22;;;;;;;11.37;3.90;;;;;;;17.17;64.93;101206.45;125987;1099;104188;-77
2021/05/25 06:19:52;;;;;;;8.73;3.87;;;;;;;17.21;64.86;101218.91;126195;1098;102706;-79
2021/05/25 06:22:24;;;;;;;10.87;3.53;;;;;;;17.28;64.92;101228.79;125077;1099;104245;-77
2021/05/25 06:24:54;;;;;;;8.93;3.57;;;;;;;17.36;64.57;101240.44;125144;1099;104223;-76
2021/05/25 06:27:25;;;;;;;7.47;2.70;;;;;;;17.39;64.33;101231.62;125096;1099;104353;-77
2021/05/25 06:29:56;;;;;;;9.63;3.40;;;;;;;17.45;64.20;101233.52;125874;1099;104460;-76
2021/05/25 06:32:28;;;;;;;5.17;2.40;;;;;;;17.52;63.59;101238.08;125797;1099;104329;-78
2021/05/25 06:35:10;;;;;;;15.90;2.80;;;;;;;17.57;63.84;101234.63;125006;1099;104173;-77
2021/05/25 06:37:49;;;;;;;7.73;3.10;;;;;;;17.69;64.07;101211.86;125157;1099;104735;-77
2021/05/25 06:40:24;;;;;;;6.63;2.93;;;;;;;17.78;63.69;101217.33;125595;1099;104210;-77
2021/05/25 06:43:17;;;;;;;6.03;2.70;;;;;;;17.89;63.13;101210.47;126580;1099;104146;-76
2021/05/25 06:46:18;;;;;;;5.10;3.30;;;;;;;18.03;63.40;101208.05;125101;1102;104246;-78
2021/05/25 06:48:51;;;;;;;8.20;2.73;;;;;;;18.13;62.91;101217.05;125190;1102;102324;-77
2021/05/25 06:51:25;;;;;;;7.87;2.90;;;;;;;18.23;62.82;101236.67;125167;1102;104396;-77
2021/05/25 06:53:56;;;;;;;6.13;2.70;;;;;;;18.32;62.85;101221.80;125091;1102;104236;-80
2021/05/25 06:56:26;;;;;;;9.70;3.00;;;;;;;18.47;62.53;101223.77;125059;1102;107645;-77
2021/05/25 06:58:57;;;;;;;6.53;2.90;;;;;;;18.64;62.48;101221.36;124949;1102;104165;-77
2021/05/25 07:01:29;;;;;;;7.87;3.20;;;;;;;18.80;61.84;101221.58;124828;1102;104364;-77
2021/05/25 07:03:59;;;;;;;7.93;3.03;;;;;;;18.95;62.63;101244.86;125350;1099;104521;-78
2021/05/25 07:06:30;;;;;;;5.60;2.73;;;;;;;19.06;61.58;101250.29;125198;1099;104175;-78
2021/05/25 07:09:03;;;;;;;7.53;3.00;;;;;;;19.18;61.08;101232.73;125178;1099;104422;-78
2021/05/25 07:11:42;;;;;;;6.43;2.70;;;;;;;19.23;61.45;101227.47;125165;1099;104301;-80
2021/05/25 07:14:15;;;;;;;4.20;2.60;;;;;;;19.42;61.46;101239.21;125721;1099;104345;-78
2021/05/25 07:16:47;;;;;;;5.33;2.10;;;;;;;19.56;61.10;101244.69;125173;1099;104171;-80
2021/05/25 07:19:17;;;;;;;5.27;2.23;;;;;;;19.66;61.12;101235.90;125755;1099;104373;-79
2021/05/25 07:21:48;;;;;;;6.17;2.60;;;;;;;19.77;60.16;101229.83;125751;1099;105621;-78
2021/05/25 07:24:19;;;;;;;;;;;;;;;19.86;59.51;101233.46;125843;1099;104257;-78
2021/05/25 07:26:50;;;;;;;6.93;2.20;;;;;;;19.98;60.02;101214.05;125815;1099;104174;-78
2021/05/25 07:29:21;;;;;;;7.00;2.47;;;;;;;20.07;60.03;101216.79;125683;1099;102276;-75
2021/05/25 07:31:51;;;;;;;4.43;2.60;;;;;;;20.23;59.88;101219.58;125761;1099;104309;-77
2021/05/25 07:34:23;;;;;;;7.37;2.27;;;;;;;20.39;59.99;101218.78;125698;1098;104347;-79
2021/05/25 07:36:55;;;;;;;5.10;2.20;;;;;;;20.56;59.21;101210.02;125806;1099;104163;-79
2021/05/25 07:39:26;;;;;;;6.50;2.10;;;;;;;20.64;58.77;101194.94;125949;1099;104176;-78
2021/05/25 07:41:56;;;;;;;4.90;1.97;;;;;;;20.73;58.43;101197.69;125901;1099;104143;-77
2021/05/25 07:44:27;;;;;;;4.67;1.97;;;;;;;20.93;58.09;101200.45;125688;1099;104278;-77
2021/05/25 07:47:00;;;;;;;3.57;2.23;;;;;;;21.03;58.85;101203.16;125611;1099;104142;-77
2021/05/25 07:49:34;;;;;;;5.20;1.67;;;;;;;21.12;57.79;101203.19;125737;1099;104242;-76
2021/05/25 07:52:04;;;;;;;7.40;2.17;;;;;;;21.19;57.07;101203.22;125812;1099;104265;-78
2021/05/25 07:54:37;;;;;;;4.65;1.70;;;;;;;21.32;56.79;101205.92;125928;1099;104220;-78
2021/05/25 07:57:08;;;;;;;3.50;1.73;;;;;;;21.44;57.31;101202.38;125991;1099;104263;-77
2021/05/25 07:59:41;;;;;;;4.10;1.73;;;;;;;21.59;56.80;101209.56;125894;1099;104245;-78
2021/05/25 08:02:12;;;;;;;6.75;1.50;;;;;;;21.71;56.31;101194.44;125927;1099;104184;-75
2021/05/25 08:04:43;;;;;;;2.63;1.47;;;;;;;21.83;55.63;101196.23;125897;1099;104236;-77
2021/05/25 08:07:14;;;;;;;1.30;1.20;;;;;;;21.98;55.19;101194.45;125876;1099;104248;-76
2021/05/25 08:09:46;;;;;;;3.60;1.73;;;;;;;22.15;55.69;101195.31;125889;1099;104262;-77
2021/05/25 08:12:16;;;;;;;5.45;1.70;;;;;;;22.29;55.52;101191.75;125796;1099;104399;-76
2021/05/25 08:14:49;;;;;;;2.53;1.40;;;;;;;22.43;54.84;101185.50;125941;1099;104235;-76
2021/05/25 08:17:23;;;;;;;4.97;1.80;;;;;;;22.71;55.09;101181.86;125939;1099;104168;-76
2021/05/25 08:20:01;;;;;;;4.00;1.40;;;;;;;23.02;54.65;101185.30;125941;1099;104235;-77
2021/05/25 08:22:34;;;;;;;4.43;1.50;;;;;;;23.35;54.20;101174.45;125855;1099;104178;-76
2021/05/25 08:25:08;;;;;;;4.20;1.50;;;;;;;23.58;54.05;101167.13;125823;1099;104229;-76
2021/05/25 08:27:39;;;;;;;4.17;1.60;;;;;;;23.67;53.70;101164.38;125819;1099;104194;-77
2021/05/25 08:30:11;;;;;;;1.93;1.47;;;;;;;23.79;52.75;101159.81;126131;1099;104168;-77
2021/05/25 08:32:42;;;;;;;4.93;1.40;;;;;;;23.85;52.80;101158.00;125991;1099;104159;-76
2021/05/25 08:35:14;;;;;;;5.70;1.70;;;;;;;23.92;52.76;101150.81;126084;1099;104192;-78
2021/05/25 08:37:52;;;;;;;3.60;1.60;;;;;;;24.03;52.44;101146.23;126001;1099;104206;-78
2021/05/25 08:40:26;;;;;;;3.75;1.55;;;;;;;24.18;52.05;101136.25;126030;1099;105172;-78
2021/05/25 08:43:03;;;;;;;2.70;1.70;;;;;;;24.23;51.43;101139.76;126116;1099;104210;-76
2021/05/25 08:45:35;;;;;;;5.03;1.87;;;;;;;24.39;51.15;101135.14;126045;1099;104345;-77
2021/05/25 08:48:09;;;;;;;7.77;1.70;;;;;;;24.45;50.38;101118.97;125917;1099;104265;-78
2021/05/25 08:50:39;;;;;;;8.87;2.10;;;;;;;24.45;50.88;101118.97;125961;1099;104338;-80
2021/05/25 08:53:10;;;;;;;6.60;2.00;;;;;;;24.56;51.12;101114.36;125948;1099;104028;-76
2021/05/25 08:55:48;;;;;;;7.20;2.57;;;;;;;24.70;50.10;101094.56;125948;1099;104329;-77
2021/05/25 08:58:18;;;;;;;5.97;2.00;;;;;;;24.71;50.19;101086.48;125842;1099;104236;-75
2021/05/25 09:00:52;;;;;;;4.17;2.00;;;;;;;24.69;50.30;101080.23;125963;1099;104210;-76
2021/05/25 09:03:25;;;;;;;4.47;2.40;;;;;;;24.69;50.24;101080.23;125711;1099;104332;-76
2021/05/25 09:05:58;;;;;;;4.70;1.93;;;;;;;24.69;49.47;101073.98;125739;1099;104142;-75
2021/05/25 09:08:34;;;;;;;4.70;1.57;;;;;;;24.65;48.31;101075.84;125725;1098;104188;-76
2021/05/25 09:11:13;;;;;;;3.57;1.50;;;;;;;24.59;48.42;101067.87;125935;1099;104162;-78
2021/05/25 09:14:08;;;;;;;3.70;1.50;;;;;;;24.52;48.32;101063.45;125955;1099;104239;-76
2021/05/25 09:16:38;;;;;;;4.10;1.50;;;;;;;24.52;47.31;101060.77;125878;1099;104216;-76
2021/05/25 09:19:09;;;;;;;1.60;1.23;;;;;;;24.58;47.33;101052.66;126009;1098;104316;-75
2021/05/25 09:21:42;;;;;;;2.67;1.17;;;;;;;24.60;47.31;101053.52;125756;1100;104171;-75
2021/05/25 09:24:14;;;;;;;4.60;1.40;;;;;;;24.57;47.19;101048.20;125732;1098;104294;-75
2021/05/25 09:26:52;;;;;;;1.93;1.40;;;;;;;24.58;46.69;101039.25;126032;1099;104215;-76
2021/05/25 09:29:28;;;;;;;2.23;1.43;;;;;;;24.58;46.14;101028.52;125931;1098;108240;-76
2021/05/25 09:32:06;;;;;;;1.47;1.17;;;;;;;24.64;45.84;101022.20;125763;1099;104136;-77
2021/05/25 09:34:38;;;;;;;2.97;1.40;;;;;;;24.63;45.84;101010.55;126724;1099;102119;-76
2021/05/25 09:37:10;;;;;;;5.13;1.50;;;;;;;24.67;45.55;101009.61;125794;1099;104230;-76
2021/05/25 09:39:53;;;;;;;2.33;1.20;;;;;;;24.73;45.43;100993.42;126151;1099;104162;-75
2021/05/25 09:42:22;;;;;;;1.33;1.23;;;;;;;24.66;44.40;101007.83;125709;1099;104171;-75
2021/05/25 09:45:01;;;;;;;4.50;1.40;;;;;;;24.56;44.92;100999.00;125757;1099;104214;-77
2021/05/25 09:47:38;;;;;;;3.13;1.43;;;;;;;24.74;44.46;100992.52;125745;1099;104221;-77
2021/05/25 09:50:11;;;;;;;2.53;1.47;;;;;;;24.91;44.29;100996.72;125697;1099;106160;-75
2021/05/25 09:53:10;;;;;;;2.80;1.20;;;;;;;24.84;43.91;100990.58;125793;1099;104140;-80
2021/05/25 09:55:54;;;;;;;2.43;1.50;;;;;;;24.69;43.18;100986.31;125813;1098;104182;-75
2021/05/25 09:58:40;;;;;;;4.10;1.40;;;;;;;24.62;43.36;100987.34;125766;1098;104197;-77
2021/05/25 10:01:10;;;;;;;4.50;1.80;;;;;;;24.79;43.49;100976.31;125572;1099;104207;-76
2021/05/25 10:03:49;;;;;;;4.53;1.70;;;;;;;24.91;43.39;100976.13;127180;1098;101730;-79
2021/05/25 10:06:20;;;;;;;3.33;1.60;;;;;;;25.04;42.79;100971.47;127157;1098;102784;-78
2021/05/25 10:08:52;;;;;;;10.83;1.90;;;;;;;25.18;42.82;100962.27;127093;1098;101917;-78
2021/05/25 10:11:23;;;;;;;4.33;1.43;;;;;;;25.28;42.94;100962.11;127127;1099;101713;-78
2021/05/25 10:13:55;;;;;;;5.00;1.40;;;;;;;25.30;41.83;100957.59;126358;1099;104169;-76
2021/05/25 10:16:28;;;;;;;2.70;1.47;;;;;;;25.29;41.78;100946.88;125599;1099;104191;-76
2021/05/25 10:19:13;;;;;;;5.23;1.37;;;;;;;25.41;42.70;100925.16;125555;1099;104228;-78
2021/05/25 10:21:45;;;;;;;4.73;1.70;;;;;;;25.41;41.85;100927.84;125713;1099;104194;-77
2021/05/25 10:24:19;;;;;;;3.53;2.03;;;;;;;25.25;42.23;100918.29;125679;1098;104233;-77
2021/05/25 10:26:52;;;;;;;4.33;1.50;;;;;;;25.11;41.60;100919.41;125733;1099;104181;-76
2021/05/25 10:29:21;;;;;;;4.37;1.43;;;;;;;24.94;41.67;100913.47;126263;1099;101664;-76
2021/05/25 10:32:00;;;;;;;1.85;1.45;;;;;;;24.77;41.63;100932.53;125826;1099;104169;-75
2021/05/25 10:34:34;;;;;;;8.47;1.70;;;;;;;24.57;41.35;100928.39;125768;1099;105639;-75
2021/05/25 10:37:18;;;;;;;2.83;1.23;;;;;;;24.43;41.20;100937.50;125672;1099;104297;-76
2021/05/25 10:40:05;;;;;;;5.10;1.20;;;;;;;24.33;41.25;100934.08;125664;1099;104165;-75
2021/05/25 10:42:57;;;;;;;8.07;1.70;;;;;;;24.30;41.22;100932.31;125552;1099;104651;-75
2021/05/25 10:45:26;;;;;;;4.70;1.40;;;;;;;24.32;41.29;100919.76;125487;1099;104169;-76
2021/05/25 10:48:03;;;;;;;7.30;1.63;;;;;;;24.38;41.32;100908.06;125552;1099;104287;-77
2021/05/25 10:50:51;;;;;;;8.37;1.50;;;;;;;24.38;40.64;100910.75;125603;1099;104243;-75
2021/05/25 10:53:26;;;;;;;4.60;1.40;;;;;;;24.43;40.77;100899.95;125149;1100;104466;-75
2021/05/25 10:56:17;;;;;;;7.62;1.82;;;;;;;24.51;40.51;100895.34;125683;1099;104157;-76
2021/05/25 10:59:01;;;;;;;4.80;2.13;;;;;;;24.58;40.34;100892.58;125554;1099;104242;-76
2021/05/25 11:01:33;;;;;;;2.90;1.50;;;;;;;24.56;40.48;100896.19;125550;1100;107583;-76
2021/05/25 11:04:18;;;;;;;2.87;1.40;;;;;;;24.56;40.33;100893.50;125729;1099;104434;-77
2021/05/25 11:06:50;;;;;;;5.57;1.73;;;;;;;24.63;39.83;100887.14;125095;1099;104331;-77
2021/05/25 11:09:28;;;;;;;1.40;1.05;;;;;;;24.69;40.03;100899.58;125573;1099;104197;-79
2021/05/25 11:12:14;;;;;;;4.80;1.67;;;;;;;24.87;39.27;100901.05;125755;1099;118891;-79
2021/05/25 11:15:08;;;;;;;2.07;1.23;;;;;;;24.91;39.04;100902.78;125831;1099;104168;-76
2021/05/25 11:17:41;;;;;;;5.22;1.70;;;;;;;24.85;39.29;100906.44;125803;1099;104217;-77
2021/05/25 11:20:54;;;;;;;1.93;1.30;;;;;;;24.79;38.99;100908.35;125934;1099;104670;-77
2021/05/25 11:23:44;;;;;;;3.47;1.30;;;;;;;24.71;39.35;100911.16;125923;1099;104210;-76
2021/05/25 11:26:43;;;;;;;4.33;1.23;;;;;;;24.71;38.74;100905.80;125901;1099;102638;-76
2021/05/25 11:29:24;;;;;;;1.57;1.40;;;;;;;24.65;38.96;100905.89;125887;1099;104200;-77
2021/05/25 11:32:03;;;;;;;2.90;1.67;;;;;;;24.55;38.75;100905.13;125814;1099;104205;-77